createdAt,value
2023-05-24T00:02:08.261Z,100754.00
2023-05-24T00:04:35.023Z,100748.00
2023-05-24T00:07:04.749Z,100749.00
2023-05-24T00:09:31.341Z,100758.00
2023-05-24T00:11:58.093Z,100753.00
2023-05-24T00:14:25.242Z,100749.00
2023-05-24T00:16:51.859Z,100748.00
2023-05-24T00:19:18.684Z,100750.00
2023-05-24T00:21:45.900Z,100753.00
2023-05-24T00:24:12.579Z,100742.00
2023-05-24T00:26:39.244Z,100760.00
2023-05-24T00:29:06.134Z,100763.00
2023-05-24T00:31:32.804Z,100762.00
2023-05-24T00:33:59.491Z,100756.00
2023-05-24T00:36:26.119Z,100770.00
2023-05-24T00:38:55.572Z,100758.00
2023-05-24T00:41:22.208Z,100760.00
2023-05-24T00:43:49.018Z,100759.00
2023-05-24T00:46:22.477Z,100760.00
2023-05-24T00:48:50.519Z,100753.00
2023-05-24T00:51:18.024Z,100762.00
2023-05-24T00:53:46.625Z,100752.00
2023-05-24T00:56:14.367Z,100759.00
2023-05-24T00:58:41.650Z,100761.00
2023-05-24T01:01:08.430Z,100750.00
2023-05-24T01:03:35.694Z,100756.00
2023-05-24T01:06:06.136Z,100757.00
2023-05-24T01:08:39.049Z,100751.00
2023-05-24T01:11:14.328Z,100758.00
2023-05-24T01:13:48.350Z,100763.00
2023-05-24T01:16:19.054Z,100762.00
2023-05-24T01:18:50.202Z,100764.00
2023-05-24T01:21:32.159Z,100759.00
2023-05-24T01:24:14.738Z,100766.00
2023-05-24T01:27:07.240Z,100767.00
2023-05-24T01:29:36.387Z,100763.00
2023-05-24T01:32:03.613Z,100764.00
2023-05-24T01:34:30.275Z,100768.00
2023-05-24T01:36:56.926Z,100770.00
2023-05-24T01:39:26.507Z,100777.00
2023-05-24T01:42:02.088Z,100776.00
2023-05-24T01:44:53.422Z,100771.00
2023-05-24T01:47:38.245Z,100771.00
2023-05-24T01:50:31.077Z,100767.00
2023-05-24T01:53:00.918Z,100774.00
2023-05-24T01:55:28.254Z,100783.00
2023-05-24T01:57:59.106Z,100768.00
2023-05-24T02:00:26.233Z,100787.00
2023-05-24T02:02:53.660Z,100777.00
2023-05-24T02:05:21.399Z,100773.00
2023-05-24T02:07:47.985Z,100780.00
2023-05-24T02:10:14.559Z,100775.00
2023-05-24T02:12:41.097Z,100786.00
2023-05-24T02:15:09.176Z,100779.00
2023-05-24T02:17:36.330Z,100756.00
2023-05-24T02:20:03.985Z,100768.00
2023-05-24T02:22:30.832Z,100781.00
2023-05-24T02:24:58.017Z,100773.00
2023-05-24T02:27:24.545Z,100775.00
2023-05-24T02:29:51.084Z,100754.00
2023-05-24T02:32:17.626Z,100768.00
2023-05-24T02:34:44.519Z,100769.00
2023-05-24T02:37:14.868Z,100763.00
2023-05-24T02:39:42.158Z,100779.00
2023-05-24T02:42:09.088Z,100774.00
2023-05-24T02:44:35.693Z,100769.00
2023-05-24T02:47:02.310Z,100775.00
2023-05-24T02:49:28.931Z,100774.00
2023-05-24T02:51:56.236Z,100767.00
2023-05-24T02:54:22.923Z,100768.00
2023-05-24T02:56:50.586Z,100778.00
2023-05-24T02:59:17.607Z,100775.00
2023-05-24T03:01:44.607Z,100770.00
2023-05-24T03:04:11.756Z,100778.00
2023-05-24T03:06:38.328Z,100773.00
2023-05-24T03:09:05.510Z,100772.00
2023-05-24T03:11:32.108Z,100769.00
2023-05-24T03:13:58.861Z,100772.00
2023-05-24T03:16:25.471Z,100783.00
2023-05-24T03:18:55.151Z,100780.00
2023-05-24T03:21:23.281Z,100778.00
2023-05-24T03:23:50.029Z,100780.00
2023-05-24T03:26:18.749Z,100774.00
2023-05-24T03:28:45.508Z,100768.00
2023-05-24T03:31:12.783Z,100776.00
2023-05-24T03:33:39.694Z,100778.00
2023-05-24T03:36:09.437Z,100783.00
2023-05-24T03:38:35.992Z,100790.00
2023-05-24T03:41:02.628Z,100781.00
2023-05-24T03:43:29.352Z,100789.00
2023-05-24T03:45:58.761Z,100785.00
2023-05-24T03:48:25.473Z,100786.00
2023-05-24T03:50:52.497Z,100786.00
2023-05-24T03:53:20.939Z,100784.00
2023-05-24T03:55:49.613Z,100786.00
2023-05-24T03:58:16.228Z,100796.00
2023-05-24T04:00:44.408Z,100795.00
2023-05-24T04:03:12.225Z,100802.00
2023-05-24T04:05:39.864Z,100797.00
2023-05-24T04:08:06.593Z,100803.00
2023-05-24T04:10:33.258Z,100796.00
2023-05-24T04:13:00.711Z,100803.00
2023-05-24T04:15:27.334Z,100793.00
2023-05-24T04:17:55.094Z,100802.00
2023-05-24T04:20:25.316Z,100802.00
2023-05-24T04:22:52.100Z,100793.00
2023-05-24T04:25:18.746Z,100798.00
2023-05-24T04:27:48.237Z,100809.00
2023-05-24T04:30:18.462Z,100814.00
2023-05-24T04:32:45.100Z,100809.00
2023-05-24T04:35:12.358Z,100809.00
2023-05-24T04:37:40.305Z,100812.00
2023-05-24T04:40:08.081Z,100817.00
2023-05-24T04:42:35.257Z,100822.00
2023-05-24T04:45:02.234Z,100826.00
2023-05-24T04:47:28.929Z,100823.00
2023-05-24T04:49:55.574Z,100827.00
2023-05-24T04:52:22.576Z,100829.00
2023-05-24T04:54:49.912Z,100838.00
2023-05-24T04:57:16.990Z,100849.00
2023-05-24T04:59:43.907Z,100847.00
2023-05-24T05:02:10.554Z,100845.00
2023-05-24T05:04:37.172Z,100845.00
2023-05-24T05:07:03.958Z,100843.00
2023-05-24T05:09:30.720Z,100857.00
2023-05-24T05:11:57.270Z,100865.00
2023-05-24T05:14:23.875Z,100860.00
2023-05-24T05:16:50.520Z,100862.00
2023-05-24T05:19:17.144Z,100863.00
2023-05-24T05:21:43.811Z,100869.00
2023-05-24T05:24:10.363Z,100876.00
2023-05-24T05:26:37.014Z,100873.00
2023-05-24T05:29:03.682Z,100862.00
2023-05-24T05:31:30.898Z,100851.00
2023-05-24T05:33:57.553Z,100871.00
2023-05-24T05:36:24.314Z,100878.00
2023-05-24T05:38:51.048Z,100873.00
2023-05-24T05:41:18.040Z,100876.00
2023-05-24T05:43:44.571Z,100884.00
2023-05-24T05:46:11.359Z,100892.00
2023-05-24T05:48:38.084Z,100887.00
2023-05-24T05:51:04.660Z,100888.00
2023-05-24T05:53:34.100Z,100894.00
2023-05-24T05:56:00.695Z,100883.00
2023-05-24T05:58:27.230Z,100879.00
2023-05-24T06:00:53.814Z,100872.00
2023-05-24T06:03:20.606Z,100892.00
2023-05-24T06:05:47.234Z,100884.00
2023-05-24T06:08:13.918Z,100890.00
2023-05-24T06:10:40.759Z,100889.00
2023-05-24T06:13:07.638Z,100903.00
2023-05-24T06:15:34.400Z,100914.00
2023-05-24T06:18:02.166Z,100908.00
2023-05-24T06:20:29.092Z,100910.00
2023-05-24T06:22:56.992Z,100897.00
2023-05-24T06:25:24.496Z,100903.00
2023-05-24T06:27:54.100Z,100905.00
2023-05-24T06:30:20.920Z,100913.00
2023-05-24T06:32:47.758Z,100922.00
2023-05-24T06:35:14.371Z,100916.00
2023-05-24T06:37:40.925Z,100920.00
2023-05-24T06:40:09.542Z,100924.00
2023-05-24T06:42:36.898Z,100921.00
2023-05-24T06:45:03.949Z,100923.00
2023-05-24T06:47:30.792Z,100920.00
2023-05-24T06:49:57.871Z,100932.00
2023-05-24T06:52:24.450Z,100927.00
2023-05-24T06:54:52.064Z,100941.00
2023-05-24T06:57:18.713Z,100944.00
2023-05-24T06:59:45.298Z,100945.00
2023-05-24T07:02:11.965Z,100945.00
2023-05-24T07:04:41.157Z,100948.00
2023-05-24T07:07:13.060Z,100941.00
2023-05-24T07:09:42.106Z,100954.00
2023-05-24T07:12:09.203Z,100949.00
2023-05-24T07:14:36.198Z,100953.00
2023-05-24T07:17:02.821Z,100950.00
2023-05-24T07:19:30.017Z,100958.00
2023-05-24T07:21:56.897Z,100955.00
2023-05-24T07:24:24.124Z,100960.00
2023-05-24T07:26:51.704Z,100956.00
2023-05-24T07:29:18.294Z,100954.00
2023-05-24T07:31:45.017Z,100959.00
2023-05-24T07:34:11.687Z,100966.00
2023-05-24T07:36:38.362Z,100969.00
2023-05-24T07:39:06.100Z,100971.00
2023-05-24T07:41:33.441Z,100973.00
2023-05-24T07:44:00.374Z,100974.00
2023-05-24T07:46:27.000Z,100975.00
2023-05-24T07:48:53.739Z,100978.00
2023-05-24T07:51:21.496Z,100981.00
2023-05-24T07:53:48.205Z,100977.00
2023-05-24T07:56:15.042Z,100981.00
2023-05-24T07:58:42.952Z,100991.00
2023-05-24T08:01:09.639Z,100988.00
2023-05-24T08:03:38.201Z,100999.00
2023-05-24T08:06:05.619Z,100996.00
2023-05-24T08:08:32.335Z,100998.00
2023-05-24T08:10:58.898Z,100989.00
2023-05-24T08:13:25.484Z,100993.00
2023-05-24T08:15:52.274Z,100995.00
2023-05-24T08:18:19.054Z,101006.00
2023-05-24T08:20:46.097Z,100998.00
2023-05-24T08:23:13.083Z,101006.00
2023-05-24T08:25:40.396Z,101002.00
2023-05-24T08:28:07.516Z,101004.00
2023-05-24T08:30:34.185Z,101001.00
2023-05-24T08:33:01.255Z,101006.00
2023-05-24T08:35:27.800Z,101003.00
2023-05-24T08:37:54.540Z,101012.00
2023-05-24T08:40:23.865Z,101020.00
2023-05-24T08:42:50.619Z,101015.00
2023-05-24T08:45:18.084Z,101007.00
2023-05-24T08:47:45.164Z,101015.00
2023-05-24T08:50:13.334Z,101019.00
2023-05-24T08:52:40.721Z,101020.00
2023-05-24T08:55:07.789Z,101030.00
2023-05-24T08:57:35.153Z,101035.00
2023-05-24T09:00:01.921Z,101026.00
2023-05-24T09:02:29.708Z,101024.00
2023-05-24T09:04:57.092Z,101030.00
2023-05-24T09:07:24.215Z,101036.00
2023-05-24T09:09:58.595Z,101032.00
2023-05-24T09:12:37.466Z,101031.00
2023-05-24T09:15:07.141Z,101030.00
2023-05-24T09:17:38.281Z,101041.00
2023-05-24T09:20:10.579Z,101040.00
2023-05-24T09:22:40.701Z,101035.00
2023-05-24T09:25:09.678Z,101037.00
2023-05-24T09:27:36.459Z,101032.00
2023-05-24T09:30:05.517Z,101029.00
2023-05-24T09:32:32.455Z,101038.00
2023-05-24T09:35:01.280Z,101029.00
2023-05-24T09:37:35.160Z,101028.00
2023-05-24T09:40:04.305Z,101044.00
2023-05-24T09:42:31.086Z,101040.00
2023-05-24T09:45:07.295Z,101036.00
2023-05-24T09:47:39.092Z,101042.00
2023-05-24T09:50:11.856Z,101044.00
2023-05-24T09:52:38.878Z,101050.00
2023-05-24T09:55:20.056Z,101046.00
2023-05-24T09:58:05.941Z,101051.00
2023-05-24T10:00:39.780Z,101049.00
2023-05-24T10:03:08.882Z,101058.00
2023-05-24T10:05:35.904Z,101058.00
2023-05-24T10:08:04.959Z,101060.00
2023-05-24T10:10:33.055Z,101046.00
2023-05-24T10:13:01.391Z,101062.00
2023-05-24T10:15:28.498Z,101058.00
2023-05-24T10:17:56.870Z,101065.00
2023-05-24T10:20:24.214Z,101060.00
2023-05-24T10:23:00.289Z,101063.00
2023-05-24T10:25:28.454Z,101068.00
2023-05-24T10:27:58.010Z,101066.00
2023-05-24T10:30:33.408Z,101060.00
2023-05-24T10:33:01.691Z,101068.00
2023-05-24T10:35:29.442Z,101073.00
2023-05-24T10:37:57.291Z,101060.00
2023-05-24T10:40:26.900Z,101068.00
2023-05-24T10:42:56.361Z,101072.00
2023-05-24T10:45:22.935Z,101079.00
2023-05-24T10:47:49.503Z,101062.00
2023-05-24T10:50:21.274Z,101077.00
2023-05-24T10:52:50.726Z,101074.00
2023-05-24T10:55:19.741Z,101058.00
2023-05-24T10:57:46.582Z,101074.00
2023-05-24T11:03:02.771Z,101072.00
2023-05-24T11:05:48.120Z,101065.00
2023-05-24T11:08:15.227Z,101062.00
2023-05-24T11:10:44.296Z,101069.00
2023-05-24T11:13:11.548Z,101080.00
2023-05-24T11:15:38.213Z,101071.00
2023-05-24T11:18:13.509Z,101071.00
2023-05-24T11:20:46.960Z,101074.00
2023-05-24T11:23:15.441Z,101072.00
2023-05-24T11:25:42.682Z,101070.00
2023-05-24T11:28:11.075Z,101069.00
2023-05-24T11:30:41.483Z,101063.00
2023-05-24T11:33:16.200Z,101064.00
2023-05-24T11:35:43.346Z,101069.00
2023-05-24T11:38:14.432Z,101069.00
2023-05-24T11:40:45.728Z,101069.00
2023-05-24T11:43:16.624Z,101071.00
2023-05-24T11:45:45.572Z,101077.00
2023-05-24T11:48:12.520Z,101084.00
2023-05-24T11:50:49.157Z,101085.00
2023-05-24T11:53:18.809Z,101082.00
2023-05-24T11:55:45.513Z,101085.00
2023-05-24T11:58:24.457Z,101085.00
2023-05-24T12:00:52.064Z,101078.00
2023-05-24T12:03:19.006Z,101081.00
2023-05-24T12:05:45.681Z,101078.00
2023-05-24T12:08:14.117Z,101077.00
2023-05-24T12:10:41.800Z,101075.00
2023-05-24T12:13:38.530Z,101082.00
2023-05-24T12:16:05.651Z,101072.00
2023-05-24T12:18:32.422Z,101081.00
2023-05-24T12:20:59.175Z,101084.00
2023-05-24T12:23:31.939Z,101074.00
2023-05-24T12:26:02.006Z,101071.00
2023-05-24T12:28:36.103Z,101081.00
2023-05-24T12:31:03.879Z,101083.00
2023-05-24T12:33:30.580Z,101079.00
2023-05-24T12:35:58.717Z,101085.00
2023-05-24T12:38:25.977Z,101089.00
2023-05-24T12:41:08.060Z,101086.00
2023-05-24T12:43:39.300Z,101087.00
2023-05-24T12:46:05.881Z,101076.00
2023-05-24T12:48:32.637Z,101077.00
2023-05-24T12:50:59.385Z,101082.00
2023-05-24T12:53:26.113Z,101083.00
2023-05-24T12:55:55.976Z,101078.00
2023-05-24T12:58:22.808Z,101072.00
2023-05-24T13:00:51.415Z,101074.00
2023-05-24T13:03:18.305Z,101076.00
2023-05-24T13:05:45.915Z,101075.00
2023-05-24T13:08:13.513Z,101071.00
2023-05-24T13:10:40.652Z,101075.00
2023-05-24T13:13:07.545Z,101081.00
2023-05-24T13:15:34.249Z,101072.00
2023-05-24T13:18:00.886Z,101075.00
2023-05-24T13:20:27.669Z,101074.00
2023-05-24T13:22:54.401Z,101073.00
2023-05-24T13:25:22.571Z,101073.00
2023-05-24T13:27:49.425Z,101063.00
2023-05-24T13:30:17.385Z,101066.00
2023-05-24T13:32:44.553Z,101070.00
2023-05-24T13:35:11.450Z,101070.00
2023-05-24T13:37:38.184Z,101068.00
2023-05-24T13:40:06.111Z,101080.00
2023-05-24T13:42:33.104Z,101091.00
2023-05-24T13:44:59.987Z,101085.00
2023-05-24T13:47:38.724Z,101081.00
2023-05-24T13:50:07.171Z,101073.00
2023-05-24T13:52:33.977Z,101082.00
2023-05-24T13:55:04.180Z,101083.00
2023-05-24T13:57:49.148Z,101084.00
2023-05-24T14:00:18.151Z,101091.00
2023-05-24T14:02:44.911Z,101086.00
2023-05-24T14:05:25.587Z,101078.00
2023-05-24T14:07:54.190Z,101087.00
2023-05-24T14:10:21.975Z,101078.00
2023-05-24T14:12:59.684Z,101084.00
2023-05-24T14:15:35.692Z,101083.00
2023-05-24T14:18:07.587Z,101077.00
2023-05-24T14:20:38.053Z,101074.00
2023-05-24T14:23:05.232Z,101073.00
2023-05-24T14:25:37.054Z,101079.00
2023-05-24T14:28:03.871Z,101079.00
2023-05-24T14:30:33.812Z,101069.00
2023-05-24T14:33:03.466Z,101069.00
2023-05-24T14:35:30.072Z,101073.00
2023-05-24T14:37:56.683Z,101073.00
2023-05-24T14:40:23.929Z,101074.00
2023-05-24T14:42:50.711Z,101076.00
2023-05-24T14:45:17.339Z,101061.00
2023-05-24T14:47:44.081Z,101064.00
2023-05-24T14:50:11.097Z,101080.00
2023-05-24T14:52:37.865Z,101079.00
2023-05-24T14:55:05.101Z,101076.00
2023-05-24T14:57:31.861Z,101078.00
2023-05-24T14:59:58.566Z,101083.00
2023-05-24T15:02:25.299Z,101079.00
2023-05-24T15:04:52.100Z,101080.00
2023-05-24T15:07:18.799Z,101077.00
2023-05-24T15:09:45.680Z,101079.00
2023-05-24T15:12:12.722Z,101081.00
2023-05-24T15:14:39.694Z,101086.00
2023-05-24T15:17:07.213Z,101074.00
2023-05-24T15:19:38.006Z,101071.00
2023-05-24T15:22:04.954Z,101071.00
2023-05-24T15:24:31.948Z,101067.00
2023-05-24T15:26:59.026Z,101069.00
2023-05-24T15:29:25.904Z,101074.00
2023-05-24T15:31:52.731Z,101071.00
2023-05-24T15:34:20.896Z,101071.00
2023-05-24T15:36:48.716Z,101067.00
2023-05-24T15:39:15.522Z,101068.00
2023-05-24T15:41:42.408Z,101069.00
2023-05-24T15:44:09.267Z,101074.00
2023-05-24T15:46:39.270Z,101084.00
2023-05-24T15:49:06.058Z,101077.00
2023-05-24T15:52:02.628Z,101077.00
2023-05-24T15:54:19.336Z,101069.00
2023-05-24T15:56:45.936Z,101070.00
2023-05-24T15:59:12.661Z,101067.00
2023-05-24T16:01:39.313Z,101076.00
2023-05-24T16:04:05.962Z,101074.00
2023-05-24T16:06:33.352Z,101076.00
2023-05-24T16:08:59.989Z,101079.00
2023-05-24T16:11:26.570Z,101065.00
2023-05-24T16:13:54.178Z,101074.00
2023-05-24T16:16:23.473Z,101077.00
2023-05-24T16:18:50.166Z,101068.00
2023-05-24T16:21:17.562Z,101068.00
2023-05-24T16:23:47.031Z,101071.00
2023-05-24T16:26:13.672Z,101067.00
2023-05-24T16:28:40.657Z,101063.00
2023-05-24T16:31:07.342Z,101062.00
2023-05-24T16:33:34.126Z,101072.00
2023-05-24T16:36:03.398Z,101070.00
2023-05-24T16:38:30.313Z,101071.00
2023-05-24T16:40:56.860Z,101076.00
2023-05-24T16:43:23.717Z,101082.00
2023-05-24T16:45:51.236Z,101076.00
2023-05-24T16:48:21.291Z,101066.00
2023-05-24T16:50:48.322Z,101075.00
2023-05-24T16:53:14.892Z,101067.00
2023-05-24T16:55:41.455Z,101068.00
2023-05-24T16:58:08.066Z,101068.00
2023-05-24T17:00:34.639Z,101071.00
2023-05-24T17:03:01.539Z,101074.00
2023-05-24T17:05:28.218Z,101071.00
2023-05-24T17:07:54.944Z,101073.00
2023-05-24T17:10:21.649Z,101076.00
2023-05-24T17:12:48.209Z,101072.00
2023-05-24T17:15:14.895Z,101073.00
2023-05-24T17:17:43.065Z,101070.00
2023-05-24T17:20:10.199Z,101087.00
2023-05-24T17:22:36.887Z,101083.00
2023-05-24T17:25:04.285Z,101085.00
2023-05-24T17:27:31.006Z,101081.00
2023-05-24T17:29:57.608Z,101082.00
2023-05-24T17:32:24.394Z,101093.00
2023-05-24T17:34:50.985Z,101093.00
2023-05-24T17:37:17.863Z,101093.00
2023-05-24T17:39:44.454Z,101102.00
2023-05-24T17:42:21.344Z,101096.00
2023-05-24T17:44:48.230Z,101107.00
2023-05-24T17:47:18.543Z,101100.00
2023-05-24T17:49:45.235Z,101094.00
2023-05-24T17:52:14.473Z,101093.00
2023-05-24T17:54:41.488Z,101087.00
2023-05-24T17:57:08.210Z,101109.00
2023-05-24T17:59:34.749Z,101114.00
2023-05-24T18:02:01.466Z,101110.00
2023-05-24T18:04:28.054Z,101108.00
2023-05-24T18:06:55.349Z,101116.00
2023-05-24T18:09:22.091Z,101115.00
2023-05-24T18:11:49.588Z,101115.00
2023-05-24T18:14:16.401Z,101118.00
2023-05-24T18:16:43.383Z,101111.00
2023-05-24T18:19:10.131Z,101120.00
2023-05-24T18:21:36.906Z,101125.00
2023-05-24T18:24:03.686Z,101119.00
2023-05-24T18:26:30.260Z,101121.00
2023-05-24T18:28:56.852Z,101127.00
2023-05-24T18:31:23.508Z,101132.00
2023-05-24T18:33:50.237Z,101137.00
2023-05-24T18:36:16.846Z,101135.00
2023-05-24T18:38:44.866Z,101127.00
2023-05-24T18:41:12.126Z,101131.00
2023-05-24T18:43:39.464Z,101139.00
2023-05-24T18:46:06.144Z,101133.00
2023-05-24T18:48:32.763Z,101139.00
2023-05-24T18:50:59.411Z,101139.00
2023-05-24T18:53:26.016Z,101139.00
2023-05-24T18:55:52.640Z,101138.00
2023-05-24T18:58:19.278Z,101144.00
2023-05-24T19:00:46.002Z,101157.00
2023-05-24T19:03:13.344Z,101162.00
2023-05-24T19:05:43.368Z,101155.00
2023-05-24T19:08:10.704Z,101160.00
2023-05-24T19:10:37.282Z,101155.00
2023-05-24T19:13:03.886Z,101155.00
2023-05-24T19:15:30.462Z,101152.00
2023-05-24T19:17:57.849Z,101161.00
2023-05-24T19:20:24.867Z,101163.00
2023-05-24T19:22:51.620Z,101161.00
2023-05-24T19:25:18.389Z,101151.00
2023-05-24T19:27:58.426Z,101167.00
2023-05-24T19:30:26.303Z,101178.00
2023-05-24T19:32:53.002Z,101171.00
2023-05-24T19:35:19.698Z,101189.00
2023-05-24T19:37:46.270Z,101188.00
2023-05-24T19:40:12.867Z,101183.00
2023-05-24T19:42:39.446Z,101184.00
2023-05-24T19:45:06.943Z,101194.00
2023-05-24T19:47:33.569Z,101194.00
2023-05-24T19:50:00.342Z,101195.00
2023-05-24T19:52:26.908Z,101194.00
2023-05-24T19:54:53.464Z,101196.00
2023-05-24T19:57:20.046Z,101190.00
2023-05-24T19:59:46.629Z,101195.00
2023-05-24T20:02:13.219Z,101194.00
2023-05-24T20:04:43.886Z,101206.00
2023-05-24T20:07:10.905Z,101197.00
2023-05-24T20:09:37.567Z,101199.00
2023-05-24T20:12:04.605Z,101204.00
2023-05-24T20:14:31.688Z,101209.00
2023-05-24T20:16:59.373Z,101199.00
2023-05-24T20:19:27.119Z,101207.00
2023-05-24T20:21:54.098Z,101196.00
2023-05-24T20:24:20.679Z,101203.00
2023-05-24T20:26:47.303Z,101203.00
2023-05-24T20:29:13.824Z,101203.00
2023-05-24T20:31:40.394Z,101209.00
2023-05-24T20:34:07.003Z,101204.00
2023-05-24T20:36:33.573Z,101192.00
2023-05-24T20:39:00.208Z,101199.00
2023-05-24T20:41:30.184Z,101201.00
2023-05-24T20:43:56.878Z,101206.00
2023-05-24T20:46:23.555Z,101212.00
2023-05-24T20:48:50.726Z,101212.00
2023-05-24T20:51:18.730Z,101213.00
2023-05-24T20:53:45.978Z,101217.00
2023-05-24T20:56:12.599Z,101210.00
2023-05-24T20:58:41.161Z,101217.00
2023-05-24T21:01:08.603Z,101221.00
2023-05-24T21:03:35.857Z,101226.00
2023-05-24T21:06:02.557Z,101223.00
2023-05-24T21:08:29.234Z,101225.00
2023-05-24T21:10:56.450Z,101230.00
2023-05-24T21:13:25.278Z,101235.00
2023-05-24T21:15:51.893Z,101234.00
2023-05-24T21:18:18.485Z,101234.00
2023-05-24T21:20:45.149Z,101244.00
2023-05-24T21:23:11.821Z,101226.00
2023-05-24T21:25:38.415Z,101247.00
2023-05-24T21:28:04.996Z,101243.00
2023-05-24T21:30:31.553Z,101259.00
2023-05-24T21:32:58.241Z,101247.00
2023-05-24T21:35:25.781Z,101253.00
2023-05-24T21:37:52.598Z,101256.00
2023-05-24T21:40:19.248Z,101260.00
2023-05-24T21:42:45.833Z,101259.00
2023-05-24T21:45:12.771Z,101256.00
2023-05-24T21:47:39.600Z,101252.00
2023-05-24T21:50:06.771Z,101256.00
2023-05-24T21:52:33.363Z,101258.00
2023-05-24T21:55:00.130Z,101256.00
2023-05-24T21:57:26.882Z,101270.00
2023-05-24T21:59:53.591Z,101255.00
2023-05-24T22:02:21.603Z,101257.00
2023-05-24T22:04:53.824Z,101271.00
2023-05-24T22:07:20.790Z,101271.00
2023-05-24T22:09:49.125Z,101265.00
2023-05-24T22:12:15.845Z,101276.00
2023-05-24T22:14:44.477Z,101268.00
2023-05-24T22:17:14.058Z,101269.00
2023-05-24T22:19:41.182Z,101281.00
2023-05-24T22:22:08.609Z,101272.00
2023-05-24T22:24:35.218Z,101274.00
2023-05-24T22:27:05.117Z,101279.00
2023-05-24T22:29:39.058Z,101270.00
2023-05-24T22:32:06.535Z,101270.00
2023-05-24T22:34:33.207Z,101275.00
2023-05-24T22:36:59.780Z,101278.00
2023-05-24T22:39:26.809Z,101278.00
2023-05-24T22:41:53.615Z,101281.00
2023-05-24T22:44:20.704Z,101284.00
2023-05-24T22:46:49.555Z,101281.00
2023-05-24T22:49:19.211Z,101279.00
2023-05-24T22:51:50.875Z,101282.00
2023-05-24T22:54:17.614Z,101283.00
2023-05-24T22:56:44.327Z,101283.00
2023-05-24T22:59:11.205Z,101279.00
2023-05-24T23:01:38.101Z,101278.00
2023-05-24T23:04:19.500Z,101283.00
2023-05-24T23:06:48.776Z,101282.00
2023-05-24T23:09:15.337Z,101273.00
2023-05-24T23:11:42.663Z,101281.00
2023-05-24T23:14:11.078Z,101277.00
2023-05-24T23:16:40.265Z,101277.00
2023-05-24T23:19:07.076Z,101283.00
2023-05-24T23:21:37.455Z,101273.00
2023-05-24T23:24:05.760Z,101276.00
2023-05-24T23:26:32.375Z,101278.00
2023-05-24T23:28:59.005Z,101279.00
2023-05-24T23:31:25.762Z,101272.00
2023-05-24T23:33:52.358Z,101282.00
2023-05-24T23:36:18.905Z,101290.00
2023-05-24T23:38:45.534Z,101287.00
2023-05-24T23:41:12.147Z,101279.00
2023-05-24T23:43:38.686Z,101284.00
2023-05-24T23:46:06.412Z,101282.00
2023-05-24T23:48:32.992Z,101279.00
2023-05-24T23:50:59.606Z,101278.00
2023-05-24T23:53:26.191Z,101286.00
2023-05-24T23:55:52.715Z,101290.00
2023-05-24T23:58:19.264Z,101279.00
